createdAt,value
2018-05-06T00:00:45.865Z,5.80
2018-05-06T00:03:24.731Z,6.93
2018-05-06T00:06:02.466Z,4.93
2018-05-06T00:08:39.520Z,7.97
2018-05-06T00:11:15.499Z,6.37
2018-05-06T00:13:52.434Z,5.83
2018-05-06T00:16:28.785Z,4.87
2018-05-06T00:19:06.913Z,10.90
2018-05-06T00:21:45.605Z,10.43
2018-05-06T00:24:22.008Z,11.70
2018-05-06T00:26:58.211Z,6.30
2018-05-06T00:29:35.563Z,13.50
2018-05-06T00:32:11.583Z,10.20
2018-05-06T00:34:51.640Z,6.20
2018-05-06T00:37:28.806Z,7.67
2018-05-06T00:40:05.108Z,6.50
2018-05-06T00:42:41.903Z,7.90
2018-05-06T00:45:18.107Z,9.17
2018-05-06T00:47:54.979Z,5.87
2018-05-06T00:50:31.065Z,7.20
2018-05-06T00:53:08.106Z,6.10
2018-05-06T00:55:45.926Z,9.50
2018-05-06T00:58:21.832Z,7.40
2018-05-06T01:00:58.601Z,6.60
2018-05-06T01:03:36.653Z,7.00
2018-05-06T01:06:12.812Z,8.43
2018-05-06T01:08:51.594Z,11.97
2018-05-06T01:11:30.075Z,8.23
2018-05-06T01:14:06.957Z,8.00
2018-05-06T01:16:43.454Z,6.53
2018-05-06T01:19:20.524Z,6.90
2018-05-06T01:21:56.458Z,5.53
2018-05-06T01:24:33.422Z,5.70
2018-05-06T01:27:10.939Z,5.03
2018-05-06T01:29:47.352Z,8.63
2018-05-06T01:32:23.736Z,6.80
2018-05-06T01:35:00.072Z,5.13
2018-05-06T01:37:36.277Z,6.53
2018-05-06T01:40:12.699Z,6.73
2018-05-06T01:42:49.092Z,6.27
2018-05-06T01:45:25.039Z,4.87
2018-05-06T01:48:01.073Z,7.73
2018-05-06T01:50:40.373Z,7.37
2018-05-06T01:53:16.384Z,4.93
2018-05-06T01:55:53.763Z,6.27
2018-05-06T01:58:29.999Z,4.57
2018-05-06T02:01:08.807Z,5.53
2018-05-06T02:03:44.798Z,6.10
2018-05-06T02:06:22.710Z,6.23
2018-05-06T02:08:59.007Z,8.57
2018-05-06T02:11:35.725Z,6.67
2018-05-06T02:14:12.884Z,5.77
2018-05-06T02:16:49.057Z,7.27
2018-05-06T02:19:26.421Z,5.40
2018-05-06T02:22:05.243Z,7.37
2018-05-06T02:24:41.308Z,6.67
2018-05-06T02:27:17.756Z,7.50
2018-05-06T02:29:54.357Z,10.33
2018-05-06T02:32:30.700Z,12.27
2018-05-06T02:35:07.722Z,7.83
2018-05-06T02:37:46.769Z,9.07
2018-05-06T02:40:22.738Z,6.87
2018-05-06T02:42:59.123Z,6.03
2018-05-06T02:45:36.245Z,6.40
2018-05-06T02:48:11.898Z,5.40
2018-05-06T02:50:47.881Z,6.43
2018-05-06T02:53:27.700Z,6.87
2018-05-06T02:56:03.733Z,6.43
2018-05-06T02:58:40.053Z,5.37
2018-05-06T03:01:16.652Z,8.30
2018-05-06T03:03:52.714Z,6.13
2018-05-06T03:06:28.404Z,6.67
2018-05-06T03:09:09.582Z,6.37
2018-05-06T03:11:45.737Z,6.03
2018-05-06T03:14:22.808Z,6.17
2018-05-06T03:16:58.893Z,5.33
2018-05-06T03:19:35.071Z,7.23
2018-05-06T03:22:11.334Z,5.90
2018-05-06T03:24:50.590Z,10.07
2018-05-06T03:27:26.752Z,6.53
2018-05-06T03:30:02.938Z,5.97
2018-05-06T03:32:39.162Z,5.93
2018-05-06T03:35:15.669Z,6.97
2018-05-06T03:37:52.289Z,8.17
2018-05-06T03:40:32.078Z,8.43
2018-05-06T03:43:08.192Z,5.47
2018-05-06T03:45:44.194Z,6.00
2018-05-06T03:48:21.648Z,7.53
2018-05-06T03:50:57.714Z,11.20
2018-05-06T03:53:33.681Z,8.30
2018-05-06T03:58:50.883Z,8.40
2018-05-06T04:01:28.135Z,7.43
2018-05-06T04:04:04.072Z,9.73
2018-05-06T04:06:40.557Z,8.20
2018-05-06T04:09:17.366Z,6.33
2018-05-06T04:11:53.636Z,12.83
2018-05-06T04:14:31.969Z,12.57
2018-05-06T04:17:08.064Z,14.17
2018-05-06T04:19:44.704Z,7.90
2018-05-06T04:22:21.069Z,8.00
2018-05-06T04:24:56.823Z,5.93
2018-05-06T04:27:33.930Z,10.10
2018-05-06T04:30:10.709Z,8.80
2018-05-06T04:32:47.051Z,11.97
2018-05-06T04:35:23.094Z,7.83
2018-05-06T04:38:02.620Z,6.37
2018-05-06T04:40:38.661Z,5.67
2018-05-06T04:43:16.217Z,7.43
2018-05-06T04:45:52.611Z,5.83
2018-05-06T04:48:28.597Z,8.33
2018-05-06T04:51:05.270Z,6.50
2018-05-06T04:53:43.618Z,7.37
2018-05-06T04:56:22.871Z,5.60
2018-05-06T04:58:59.030Z,6.20
2018-05-06T05:01:35.664Z,7.60
2018-05-06T05:04:13.309Z,8.17
2018-05-06T05:06:49.208Z,6.60
2018-05-06T05:09:26.382Z,8.77
2018-05-06T05:12:03.119Z,16.27
2018-05-06T05:14:39.945Z,10.47
2018-05-06T05:17:16.366Z,12.93
2018-05-06T05:19:52.269Z,12.63
2018-05-06T05:22:28.362Z,8.53
2018-05-06T05:25:07.393Z,10.43
2018-05-06T05:27:43.632Z,8.57
2018-05-06T05:30:20.091Z,11.33
2018-05-06T05:32:56.410Z,9.97
2018-05-06T05:35:32.526Z,8.43
2018-05-06T05:38:09.180Z,9.37
2018-05-06T05:40:48.673Z,10.00
2018-05-06T05:43:28.860Z,11.93
2018-05-06T05:46:05.157Z,11.87
2018-05-06T05:48:44.996Z,8.90
2018-05-06T05:51:21.518Z,7.27
2018-05-06T05:54:01.164Z,8.77
2018-05-06T05:56:37.518Z,8.67
2018-05-06T05:59:13.288Z,8.37
2018-05-06T06:01:49.465Z,12.97
2018-05-06T06:04:31.385Z,8.03
2018-05-06T06:07:10.920Z,7.33
2018-05-06T06:09:47.129Z,9.77
2018-05-06T06:12:23.848Z,10.57
2018-05-06T06:15:04.087Z,11.53
2018-05-06T06:17:40.023Z,7.60
2018-05-06T06:20:17.851Z,8.10
2018-05-06T06:22:54.594Z,7.13
2018-05-06T06:25:32.240Z,8.67
2018-05-06T06:28:13.635Z,7.17
2018-05-06T06:30:52.125Z,8.23
2018-05-06T06:33:31.455Z,9.30
2018-05-06T06:36:12.152Z,10.57
2018-05-06T06:38:50.811Z,8.77
2018-05-06T06:41:27.314Z,7.00
2018-05-06T06:44:11.045Z,7.23
2018-05-06T06:46:50.463Z,6.67
2018-05-06T06:49:26.801Z,7.27
2018-05-06T06:52:03.270Z,5.53
2018-05-06T06:54:39.388Z,7.83
2018-05-06T06:57:15.657Z,5.83
2018-05-06T06:59:57.588Z,5.80
2018-05-06T07:02:37.149Z,8.73
2018-05-06T07:05:18.332Z,9.20
2018-05-06T07:07:57.042Z,9.00
2018-05-06T07:10:36.863Z,7.50
2018-05-06T07:13:19.317Z,8.30
2018-05-06T07:15:58.917Z,11.00
2018-05-06T07:18:39.871Z,8.00
2018-05-06T07:21:19.291Z,6.20
2018-05-06T07:23:59.248Z,6.93
2018-05-06T07:26:39.133Z,8.17
2018-05-06T07:29:19.618Z,5.80
2018-05-06T07:31:58.597Z,7.50
2018-05-06T07:34:37.887Z,8.33
2018-05-06T07:37:18.225Z,5.97
2018-05-06T07:39:59.073Z,7.00
2018-05-06T07:42:47.979Z,8.47
2018-05-06T07:45:24.829Z,5.97
2018-05-06T07:48:02.742Z,10.27
2018-05-06T07:50:44.797Z,4.43
2018-05-06T07:53:23.306Z,7.27
2018-05-06T07:56:03.082Z,6.90
2018-05-06T07:58:43.637Z,6.50
2018-05-06T08:01:24.843Z,6.90
2018-05-06T08:04:04.814Z,6.23
2018-05-06T08:06:43.728Z,6.93
2018-05-06T08:09:24.922Z,6.73
2018-05-06T08:12:03.208Z,6.00
2018-05-06T08:14:43.219Z,8.27
2018-05-06T08:17:27.001Z,5.27
2018-05-06T08:20:06.650Z,4.87
2018-05-06T08:22:48.357Z,4.90
2018-05-06T08:25:25.978Z,5.20
2018-05-06T08:28:12.820Z,5.53
2018-05-06T08:30:49.284Z,5.70
2018-05-06T08:33:27.569Z,4.37
2018-05-06T08:36:08.810Z,7.80
2018-05-06T08:38:48.242Z,4.97
2018-05-06T08:41:28.323Z,5.07
2018-05-06T08:44:09.117Z,5.17
2018-05-06T08:46:50.107Z,4.63
2018-05-06T08:49:28.584Z,5.63
2018-05-06T08:52:09.090Z,8.00
2018-05-06T08:54:50.365Z,5.27
2018-05-06T08:57:30.536Z,5.47
2018-05-06T09:00:10.985Z,6.67
2018-05-06T09:02:48.882Z,6.33
2018-05-06T09:05:31.720Z,7.27
2018-05-06T09:08:11.516Z,4.10
2018-05-06T09:10:50.475Z,7.30
2018-05-06T09:13:31.595Z,6.83
2018-05-06T09:16:13.160Z,8.80
2018-05-06T09:18:52.696Z,4.17
2018-05-06T09:21:36.690Z,7.27
2018-05-06T09:24:13.021Z,5.97
2018-05-06T09:26:52.546Z,5.43
2018-05-06T09:29:33.869Z,7.07
2018-05-06T09:32:13.018Z,3.97
2018-05-06T09:34:57.109Z,4.57
2018-05-06T09:37:34.971Z,7.57
2018-05-06T09:40:14.891Z,6.10
2018-05-06T09:42:57.341Z,4.40
2018-05-06T09:45:36.392Z,3.83
2018-05-06T09:48:19.677Z,4.83
2018-05-06T09:50:56.009Z,5.03
2018-05-06T09:53:35.183Z,4.87
2018-05-06T09:56:17.582Z,7.50
2018-05-06T09:58:55.336Z,4.27
2018-05-06T10:01:35.827Z,4.03
2018-05-06T10:04:17.913Z,6.20
2018-05-06T10:06:58.036Z,6.70
2018-05-06T10:09:37.716Z,4.93
2018-05-06T10:12:21.489Z,5.40
2018-05-06T10:15:02.252Z,3.67
2018-05-06T10:17:40.567Z,4.80
2018-05-06T10:20:21.495Z,4.03
2018-05-06T10:23:03.412Z,3.83
2018-05-06T10:25:40.554Z,3.40
2018-05-06T10:28:22.968Z,4.57
2018-05-06T10:31:02.622Z,4.43
2018-05-06T10:33:40.475Z,3.90
2018-05-06T10:36:23.100Z,2.93
2018-05-06T10:39:03.360Z,3.80
2018-05-06T10:41:41.023Z,3.60
2018-05-06T10:44:22.807Z,3.87
2018-05-06T10:47:03.363Z,2.83
2018-05-06T10:49:42.932Z,4.17
2018-05-06T10:52:25.934Z,4.60
2018-05-06T10:55:03.049Z,4.03
2018-05-06T10:57:48.471Z,3.23
2018-05-06T11:00:25.527Z,5.27
2018-05-06T11:03:03.396Z,5.60
2018-05-06T11:05:42.564Z,3.80
2018-05-06T11:08:21.826Z,2.53
2018-05-06T11:11:03.256Z,3.50
2018-05-06T11:13:42.730Z,3.50
2018-05-06T11:16:27.907Z,4.17
2018-05-06T11:19:07.014Z,5.43
2018-05-06T11:21:46.442Z,3.60
2018-05-06T11:24:28.176Z,3.40
2018-05-06T11:27:08.961Z,5.07
2018-05-06T11:29:52.129Z,3.53
2018-05-06T11:32:28.660Z,2.80
2018-05-06T11:35:10.447Z,3.85
2018-05-06T11:37:50.288Z,5.12
2018-05-06T11:40:30.227Z,4.00
2018-05-06T11:43:09.198Z,4.20
2018-05-06T11:45:53.278Z,4.23
2018-05-06T11:48:33.262Z,7.20
2018-05-06T11:51:11.328Z,4.53
2018-05-06T11:53:53.484Z,3.37
2018-05-06T11:56:32.676Z,3.37
2018-05-06T11:59:12.667Z,6.07
2018-05-06T12:01:54.739Z,3.67
2018-05-06T12:04:31.442Z,3.90
2018-05-06T12:07:11.003Z,5.53
2018-05-06T12:09:54.483Z,4.73
2018-05-06T12:12:33.205Z,6.07
2018-05-06T12:15:11.562Z,4.40
2018-05-06T12:17:53.918Z,4.53
2018-05-06T12:20:32.488Z,3.83
2018-05-06T12:23:12.055Z,2.83
2018-05-06T12:25:51.235Z,3.00
2018-05-06T12:28:30.677Z,4.00
2018-05-06T12:31:09.740Z,3.73
2018-05-06T12:33:54.117Z,4.83
2018-05-06T12:36:33.893Z,3.10
2018-05-06T12:39:17.924Z,4.60
2018-05-06T12:41:56.677Z,5.27
2018-05-06T12:44:37.189Z,7.50
2018-05-06T12:47:18.165Z,4.60
2018-05-06T12:49:57.189Z,3.40
2018-05-06T12:52:40.420Z,4.30
2018-05-06T12:55:17.723Z,4.30
2018-05-06T12:57:58.673Z,3.87
2018-05-06T13:00:39.720Z,3.30
2018-05-06T13:03:19.102Z,6.10
2018-05-06T13:06:01.961Z,4.70
2018-05-06T13:08:41.341Z,2.67
2018-05-06T13:11:20.996Z,3.47
2018-05-06T13:14:01.348Z,2.57
2018-05-06T13:16:40.017Z,3.97
2018-05-06T13:19:22.957Z,2.90
2018-05-06T13:22:03.254Z,3.93
2018-05-06T13:24:42.712Z,3.70
2018-05-06T13:27:24.612Z,5.80
2018-05-06T13:30:02.992Z,3.20
2018-05-06T13:32:43.406Z,8.40
2018-05-06T13:38:07.247Z,4.70
2018-05-06T13:40:43.865Z,3.40
2018-05-06T13:46:06.931Z,3.47
2018-05-06T13:48:45.412Z,4.97
2018-05-06T13:51:27.049Z,2.80
2018-05-06T13:54:06.101Z,2.87
2018-05-06T13:56:47.288Z,4.87
2018-05-06T13:59:27.270Z,4.13
2018-05-06T14:02:07.047Z,3.40
2018-05-06T14:04:47.634Z,2.97
2018-05-06T14:07:31.446Z,4.20
2018-05-06T14:10:09.940Z,4.30
2018-05-06T14:12:53.395Z,4.80
2018-05-06T14:15:29.771Z,3.10
2018-05-06T14:18:06.654Z,3.93
2018-05-06T14:20:50.302Z,2.90
2018-05-06T14:23:28.672Z,2.50
2018-05-06T14:26:11.419Z,3.80
2018-05-06T14:28:52.081Z,5.10
2018-05-06T14:31:35.877Z,3.50
2018-05-06T14:34:13.473Z,3.23
2018-05-06T14:36:52.038Z,3.57
2018-05-06T14:39:33.005Z,3.03
2018-05-06T14:42:09.540Z,3.70
2018-05-06T14:44:48.636Z,2.57
2018-05-06T14:47:43.344Z,3.10
2018-05-06T14:50:27.144Z,2.87
2018-05-06T14:53:14.611Z,2.90
2018-05-06T14:55:55.623Z,3.87
2018-05-06T14:58:34.088Z,2.97
2018-05-06T15:01:11.847Z,2.53
2018-05-06T15:03:59.169Z,3.83
2018-05-06T15:06:35.664Z,6.33
2018-05-06T15:09:15.656Z,2.90
2018-05-06T15:11:53.102Z,2.20
2018-05-06T15:14:38.844Z,2.43
2018-05-06T15:17:19.654Z,3.00
2018-05-06T15:19:56.266Z,2.70
2018-05-06T15:22:36.179Z,2.57
2018-05-06T15:31:33.842Z,7.47
2018-05-06T15:34:16.314Z,4.00
2018-05-06T15:36:57.131Z,2.90
2018-05-06T15:39:40.810Z,3.37
2018-05-06T15:42:17.841Z,4.83
2018-05-06T15:44:56.881Z,3.43
2018-05-06T15:47:39.465Z,2.70
2018-05-06T15:50:18.430Z,2.20
2018-05-06T15:52:57.971Z,2.60
2018-05-06T15:55:41.006Z,2.93
2018-05-06T15:58:20.802Z,2.57
2018-05-06T16:01:05.696Z,3.73
2018-05-06T16:04:22.690Z,3.77
2018-05-06T16:07:02.064Z,2.30
2018-05-06T16:09:44.254Z,8.53
2018-05-06T16:12:24.172Z,4.53
2018-05-06T16:15:01.887Z,3.03
2018-05-06T16:17:43.522Z,3.23
2018-05-06T16:20:20.636Z,2.90
2018-05-06T16:23:02.548Z,3.70
2018-05-06T16:25:46.713Z,3.40
2018-05-06T16:28:25.940Z,3.33
2018-05-06T16:31:07.331Z,2.60
2018-05-06T16:33:45.026Z,3.53
2018-05-06T16:36:28.384Z,2.80
2018-05-06T16:39:07.177Z,3.50
2018-05-06T16:41:45.207Z,2.65
2018-05-06T16:44:28.550Z,3.00
2018-05-06T16:47:06.644Z,3.25
2018-05-06T16:49:49.810Z,3.78
2018-05-06T16:52:27.193Z,3.53
2018-05-06T16:57:49.871Z,6.45
2018-05-06T17:00:27.713Z,3.28
2018-05-06T17:03:09.072Z,3.12
2018-05-06T17:05:49.577Z,4.37
2018-05-06T17:08:27.207Z,3.37
2018-05-06T17:11:08.948Z,3.15
2018-05-06T17:13:51.057Z,3.45
2018-05-06T17:16:31.088Z,4.12
2018-05-06T17:19:08.974Z,5.20
2018-05-06T17:21:48.513Z,4.00
2018-05-06T17:24:32.962Z,5.15
2018-05-06T17:27:10.260Z,5.78
2018-05-06T17:29:50.355Z,6.82
2018-05-06T17:32:32.324Z,5.47
2018-05-06T17:35:10.234Z,7.37
2018-05-06T17:37:52.016Z,11.57
2018-05-06T17:40:33.870Z,7.85
2018-05-06T17:43:10.522Z,6.97
2018-05-06T17:45:51.999Z,8.57
2018-05-06T17:48:34.790Z,8.23
2018-05-06T17:51:14.880Z,8.57
2018-05-06T17:53:57.738Z,5.47
2018-05-06T17:56:34.425Z,4.80
2018-05-06T17:59:17.760Z,4.50
2018-05-06T18:01:55.383Z,3.90
2018-05-06T18:04:42.645Z,2.60
2018-05-06T18:07:18.610Z,2.77
2018-05-06T18:09:56.407Z,3.07
2018-05-06T18:12:39.718Z,4.20
2018-05-06T18:15:16.190Z,3.00
2018-05-06T18:17:56.423Z,4.20
2018-05-06T18:20:37.067Z,4.60
2018-05-06T18:23:18.466Z,4.47
2018-05-06T18:25:59.218Z,5.00
2018-05-06T18:28:39.162Z,5.57
2018-05-06T18:31:21.576Z,2.93
2018-05-06T18:33:59.294Z,2.93
2018-05-06T18:36:39.960Z,2.87
2018-05-06T18:39:20.114Z,3.77
2018-05-06T18:42:00.033Z,3.70
2018-05-06T18:44:43.610Z,3.20
2018-05-06T18:47:21.423Z,3.20
2018-05-06T18:50:06.037Z,2.40
2018-05-06T18:52:43.151Z,4.23
2018-05-06T18:55:22.411Z,3.87
2018-05-06T18:58:04.637Z,2.37
2018-05-06T19:00:42.132Z,3.47
2018-05-06T19:03:22.137Z,3.43
2018-05-06T19:06:02.531Z,3.30
2018-05-06T19:08:41.360Z,3.27
2018-05-06T19:11:21.506Z,3.23
2018-05-06T19:14:01.315Z,2.63
2018-05-06T19:19:25.427Z,3.10
2018-05-06T19:22:03.501Z,4.53
2018-05-06T19:24:45.859Z,3.03
2018-05-06T19:27:25.119Z,2.70
2018-05-06T19:30:04.317Z,4.33
2018-05-06T19:32:44.936Z,3.37
2018-05-06T19:35:24.301Z,3.27
2018-05-06T19:38:03.716Z,5.27
2018-05-06T19:40:45.798Z,2.63
2018-05-06T19:43:26.840Z,2.47
2018-05-06T19:46:07.105Z,5.00
2018-05-06T19:48:49.578Z,2.67
2018-05-06T19:51:29.117Z,3.37
2018-05-06T19:54:09.969Z,2.53
2018-05-06T19:56:47.970Z,3.57
2018-05-06T19:59:26.808Z,3.70
2018-05-06T20:02:06.792Z,2.93
2018-05-06T20:04:43.341Z,3.37
2018-05-06T20:07:23.286Z,3.13
2018-05-06T20:10:07.720Z,4.33
2018-05-06T20:12:48.775Z,3.80
2018-05-06T20:15:29.738Z,4.40
2018-05-06T20:18:08.976Z,4.97
2018-05-06T20:20:51.911Z,2.97
2018-05-06T20:23:30.661Z,3.93
2018-05-06T20:26:11.453Z,3.60
2018-05-06T20:28:54.088Z,3.83
2018-05-06T20:31:33.836Z,5.17
2018-05-06T20:34:15.230Z,4.13
2018-05-06T20:36:55.458Z,4.33
2018-05-06T20:39:36.092Z,3.60
2018-05-06T20:42:14.457Z,5.23
2018-05-06T20:44:53.604Z,5.20
2018-05-06T20:47:36.591Z,4.20
2018-05-06T20:50:17.337Z,7.87
2018-05-06T20:52:57.177Z,2.90
2018-05-06T20:55:37.935Z,4.17
2018-05-06T20:58:18.156Z,8.27
2018-05-06T21:00:56.537Z,3.20
2018-05-06T21:03:35.994Z,6.77
2018-05-06T21:06:18.432Z,2.87
2018-05-06T21:08:57.718Z,4.33
2018-05-06T21:11:37.770Z,7.23
2018-05-06T21:14:21.039Z,3.10
2018-05-06T21:16:57.151Z,3.53
2018-05-06T21:19:36.043Z,2.10
2018-05-06T21:22:16.465Z,2.37
2018-05-06T21:24:53.865Z,3.47
2018-05-06T21:27:33.732Z,5.23
2018-05-06T21:30:16.726Z,5.27
2018-05-06T21:35:39.244Z,4.33
2018-05-06T21:38:17.758Z,5.63
2018-05-06T21:40:54.774Z,4.50
2018-05-06T21:43:38.130Z,3.07
2018-05-06T21:46:14.509Z,5.13
2018-05-06T21:48:51.851Z,4.13
2018-05-06T21:51:28.141Z,2.90
2018-05-06T21:54:06.456Z,3.03
2018-05-06T21:56:46.092Z,3.00
2018-05-06T21:59:23.260Z,3.83
2018-05-06T22:02:01.094Z,3.10
2018-05-06T22:04:41.660Z,4.07
2018-05-06T22:07:17.809Z,4.07
2018-05-06T22:09:53.663Z,2.63
2018-05-06T22:12:31.265Z,5.27
2018-05-06T22:15:07.742Z,3.03
2018-05-06T22:17:44.725Z,3.67
2018-05-06T22:20:23.275Z,3.37
2018-05-06T22:23:00.287Z,3.30
2018-05-06T22:25:40.188Z,3.70
2018-05-06T22:28:16.563Z,3.47
2018-05-06T22:30:53.240Z,5.97
2018-05-06T22:33:30.644Z,3.87
2018-05-06T22:37:34.682Z,3.90
2018-05-06T22:40:12.839Z,4.87
2018-05-06T22:42:50.192Z,2.97
2018-05-06T22:45:29.676Z,3.07
2018-05-06T22:48:07.912Z,4.20
2018-05-06T22:50:44.412Z,6.90
2018-05-06T22:53:20.954Z,3.90
2018-05-06T22:55:56.973Z,2.73
2018-05-06T22:58:34.122Z,3.00
2018-05-06T23:01:13.942Z,4.77
2018-05-06T23:03:50.093Z,5.10
2018-05-06T23:06:26.522Z,5.03
2018-05-06T23:09:04.821Z,3.77
2018-05-06T23:11:40.927Z,3.50
2018-05-06T23:14:17.276Z,4.73
2018-05-06T23:16:55.832Z,4.40
2018-05-06T23:19:33.229Z,6.17
2018-05-06T23:22:11.646Z,6.00
2018-05-06T23:24:47.954Z,6.20
2018-05-06T23:27:25.119Z,4.27
2018-05-06T23:30:01.072Z,3.20
2018-05-06T23:32:37.089Z,4.03
2018-05-06T23:35:16.188Z,5.43
2018-05-06T23:37:53.105Z,5.90
2018-05-06T23:40:29.567Z,5.10
2018-05-06T23:43:06.685Z,3.50
2018-05-06T23:45:42.912Z,3.70
2018-05-06T23:48:19.013Z,4.77
2018-05-06T23:50:58.232Z,4.90
2018-05-06T23:53:34.610Z,3.03
2018-05-06T23:56:10.841Z,3.10
2018-05-06T23:58:47.537Z,4.17
